createdAt,value
2022-09-07T00:01:03.258Z,1.25
2022-09-07T00:04:06.133Z,1.00
2022-09-07T00:07:09.823Z,1.33
2022-09-07T00:10:12.775Z,1.30
2022-09-07T00:13:15.449Z,1.20
2022-09-07T00:16:20.665Z,1.00
2022-09-07T00:19:23.703Z,1.23
2022-09-07T00:22:26.609Z,0.95
2022-09-07T00:25:31.862Z,1.02
2022-09-07T00:28:35.210Z,1.17
2022-09-07T00:31:39.477Z,1.15
2022-09-07T00:34:42.173Z,1.00
2022-09-07T00:37:44.914Z,0.95
2022-09-07T00:40:47.615Z,1.20
2022-09-07T00:43:51.298Z,1.40
2022-09-07T00:46:55.451Z,1.05
2022-09-07T00:49:59.704Z,1.20
2022-09-07T00:53:06.634Z,1.20
2022-09-07T00:56:10.327Z,1.10
2022-09-07T00:59:15.130Z,1.08
2022-09-07T01:02:19.714Z,1.30
2022-09-07T01:05:24.648Z,1.02
2022-09-07T01:08:27.477Z,1.20
2022-09-07T01:11:32.059Z,1.13
2022-09-07T01:14:35.592Z,1.10
2022-09-07T01:17:44.683Z,1.00
2022-09-07T01:20:51.787Z,1.30
2022-09-07T01:24:15.222Z,1.00
2022-09-07T01:27:33.582Z,1.05
2022-09-07T01:30:38.055Z,1.20
2022-09-07T01:33:44.684Z,1.58
2022-09-07T01:36:50.313Z,1.30
2022-09-07T01:39:54.870Z,1.23
2022-09-07T01:43:01.216Z,0.88
2022-09-07T01:46:05.200Z,1.50
2022-09-07T01:49:11.692Z,1.15
2022-09-07T01:52:16.045Z,1.02
2022-09-07T01:55:23.104Z,1.30
2022-09-07T01:58:29.186Z,1.48
2022-09-07T02:01:33.909Z,1.38
2022-09-07T02:04:38.628Z,1.50
2022-09-07T02:07:43.453Z,1.42
2022-09-07T02:10:50.539Z,1.33
2022-09-07T02:13:56.623Z,1.27
2022-09-07T02:17:02.250Z,1.60
2022-09-07T02:20:07.824Z,1.63
2022-09-07T02:23:13.676Z,1.50
2022-09-07T02:26:17.888Z,1.75
2022-09-07T02:29:22.020Z,1.42
2022-09-07T02:32:24.803Z,1.52
2022-09-07T02:35:27.546Z,2.10
2022-09-07T02:38:30.314Z,1.50
2022-09-07T02:41:34.634Z,2.05
2022-09-07T02:44:40.502Z,1.65
2022-09-07T02:47:53.328Z,1.80
2022-09-07T02:51:02.189Z,1.75
2022-09-07T02:54:20.579Z,2.20
2022-09-07T02:57:27.356Z,2.00
2022-09-07T03:00:32.963Z,1.77
2022-09-07T03:03:39.669Z,1.88
2022-09-07T03:06:44.765Z,1.67
2022-09-07T03:09:49.471Z,2.42
2022-09-07T03:12:52.513Z,2.15
2022-09-07T03:15:56.953Z,2.35
2022-09-07T03:18:59.694Z,2.65
2022-09-07T03:22:02.389Z,2.55
2022-09-07T03:25:05.915Z,2.67
2022-09-07T03:28:08.803Z,2.47
2022-09-07T03:31:13.099Z,2.72
2022-09-07T03:34:15.901Z,2.88
2022-09-07T03:37:19.000Z,2.40
2022-09-07T03:40:21.746Z,3.17
2022-09-07T03:43:25.350Z,3.15
2022-09-07T03:46:29.453Z,3.40
2022-09-07T03:49:32.218Z,3.10
2022-09-07T03:52:35.283Z,4.00
2022-09-07T03:55:37.967Z,3.05
2022-09-07T03:58:40.958Z,3.72
2022-09-07T04:01:45.143Z,3.70
2022-09-07T04:04:48.112Z,3.10
2022-09-07T04:07:50.896Z,4.05
2022-09-07T04:10:53.580Z,3.47
2022-09-07T04:13:56.578Z,3.53
2022-09-07T04:17:00.824Z,3.28
2022-09-07T04:20:04.604Z,3.10
2022-09-07T04:23:07.571Z,2.97
2022-09-07T04:26:14.511Z,3.50
2022-09-07T04:29:17.211Z,2.90
2022-09-07T04:32:21.474Z,2.70
2022-09-07T04:35:24.274Z,2.80
2022-09-07T04:38:27.161Z,2.88
2022-09-07T04:41:31.033Z,3.00
2022-09-07T04:44:33.847Z,3.05
2022-09-07T04:47:37.954Z,2.85
2022-09-07T04:50:40.825Z,1.98
2022-09-07T04:53:43.751Z,2.83
2022-09-07T04:56:46.499Z,2.50
2022-09-07T04:59:49.252Z,2.40
2022-09-07T05:02:53.433Z,2.35
2022-09-07T05:05:56.163Z,3.00
2022-09-07T05:08:59.877Z,2.58
2022-09-07T05:12:02.886Z,2.53
2022-09-07T05:15:06.411Z,2.83
2022-09-07T05:18:11.416Z,2.22
2022-09-07T05:21:15.501Z,2.28
2022-09-07T05:24:18.185Z,2.08
2022-09-07T05:27:20.923Z,2.45
2022-09-07T05:37:11.735Z,2.10
2022-09-07T05:40:15.342Z,2.20
2022-09-07T05:43:19.447Z,2.80
2022-09-07T05:46:22.116Z,2.70
2022-09-07T05:49:26.285Z,2.25
2022-09-07T05:52:29.644Z,2.03
2022-09-07T05:55:32.370Z,2.28
2022-09-07T05:58:37.098Z,2.28
2022-09-07T06:01:40.030Z,2.45
2022-09-07T06:04:44.223Z,2.70
2022-09-07T06:07:47.971Z,2.42
2022-09-07T06:10:50.715Z,1.80
2022-09-07T06:13:53.593Z,2.00
2022-09-07T06:16:56.476Z,2.25
2022-09-07T06:20:00.624Z,2.08
2022-09-07T06:23:03.470Z,1.45
2022-09-07T06:26:06.794Z,1.95
2022-09-07T06:29:11.031Z,2.10
2022-09-07T06:35:37.873Z,2.00
2022-09-07T06:38:40.971Z,1.60
2022-09-07T06:41:59.328Z,1.85
2022-09-07T06:45:06.506Z,1.55
2022-09-07T06:48:09.155Z,1.60
2022-09-07T06:51:16.125Z,1.85
2022-09-07T06:57:41.990Z,1.67
2022-09-07T07:00:44.858Z,1.52
2022-09-07T07:03:48.217Z,1.58
2022-09-07T07:06:52.624Z,1.48
2022-09-07T07:09:55.601Z,1.98
2022-09-07T07:13:00.265Z,1.92
2022-09-07T07:16:04.106Z,1.85
2022-09-07T07:19:07.036Z,1.83
2022-09-07T07:22:35.978Z,1.67
2022-09-07T07:25:36.421Z,1.55
2022-09-07T07:32:02.030Z,1.85
2022-09-07T07:35:05.350Z,2.13
2022-09-07T07:41:57.504Z,2.00
2022-09-07T07:48:27.744Z,1.70
2022-09-07T07:51:31.464Z,1.80
2022-09-07T07:54:36.663Z,1.75
2022-09-07T07:57:39.357Z,1.80
2022-09-07T08:00:57.693Z,1.60
2022-09-07T08:04:01.084Z,1.60
2022-09-07T08:07:09.724Z,1.60
2022-09-07T08:10:14.559Z,1.88
2022-09-07T08:13:17.859Z,2.03
2022-09-07T08:16:20.751Z,1.92
2022-09-07T08:19:23.433Z,1.45
2022-09-07T08:22:26.000Z,1.95
2022-09-07T08:25:29.849Z,1.60
2022-09-07T08:28:33.506Z,1.70
2022-09-07T08:31:36.281Z,1.58
2022-09-07T08:34:38.972Z,1.85
2022-09-07T08:37:41.556Z,2.17
2022-09-07T08:40:45.611Z,2.10
2022-09-07T08:43:50.034Z,2.17
2022-09-07T08:46:54.862Z,2.03
2022-09-07T08:50:02.161Z,1.80
2022-09-07T08:53:08.324Z,1.70
2022-09-07T08:56:15.008Z,1.80
2022-09-07T08:59:19.933Z,1.95
2022-09-07T09:02:33.686Z,2.00
2022-09-07T09:05:39.265Z,1.70
2022-09-07T09:08:51.712Z,1.85
2022-09-07T09:12:00.949Z,1.70
2022-09-07T09:15:11.814Z,1.80
2022-09-07T09:18:21.827Z,2.10
2022-09-07T09:21:24.805Z,1.80
2022-09-07T09:24:29.236Z,1.58
2022-09-07T09:27:33.213Z,2.10
2022-09-07T09:30:36.066Z,1.98
2022-09-07T09:33:39.373Z,2.22
2022-09-07T09:36:46.701Z,1.80
2022-09-07T09:40:02.225Z,1.60
2022-09-07T09:43:16.983Z,1.98
2022-09-07T09:46:21.818Z,1.63
2022-09-07T09:49:26.380Z,1.92
2022-09-07T09:52:33.955Z,2.03
2022-09-07T09:55:41.733Z,2.30
2022-09-07T10:05:43.134Z,3.88
2022-09-07T10:08:51.718Z,2.47
2022-09-07T10:12:06.767Z,2.30
2022-09-07T10:15:25.521Z,2.28
2022-09-07T10:18:33.560Z,2.47
2022-09-07T10:21:36.274Z,2.53
2022-09-07T10:38:51.867Z,2.42
2022-09-07T10:42:00.365Z,2.65
2022-09-07T10:45:05.527Z,2.40
2022-09-07T10:48:09.942Z,2.63
2022-09-07T10:51:17.432Z,2.33
2022-09-07T10:54:33.044Z,2.78
2022-09-07T10:57:43.633Z,2.72
2022-09-07T11:00:52.958Z,2.42
2022-09-07T11:04:04.442Z,2.83
2022-09-07T11:07:15.463Z,2.38
2022-09-07T11:10:25.803Z,2.70
2022-09-07T11:14:12.431Z,2.03
2022-09-07T11:17:16.790Z,2.42
2022-09-07T11:20:23.828Z,2.33
2022-09-07T11:23:30.224Z,2.80
2022-09-07T11:26:38.152Z,2.83
2022-09-07T11:29:49.455Z,3.05
2022-09-07T11:36:30.365Z,3.17
2022-09-07T11:39:42.683Z,2.95
2022-09-07T11:42:59.836Z,2.42
2022-09-07T11:46:23.266Z,2.85
2022-09-07T11:49:33.391Z,2.58
2022-09-07T11:59:49.750Z,2.70
2022-09-07T12:03:03.354Z,2.75
2022-09-07T12:06:38.576Z,3.40
2022-09-07T12:09:51.690Z,2.90
2022-09-07T12:13:10.828Z,2.42
2022-09-07T12:16:23.334Z,2.42
2022-09-07T12:19:28.056Z,2.80
2022-09-07T12:22:32.724Z,2.95
2022-09-07T12:25:48.486Z,2.58
2022-09-07T12:29:08.499Z,2.90
2022-09-07T12:35:40.316Z,2.90
2022-09-07T12:39:28.938Z,3.42
2022-09-07T12:42:47.971Z,3.05
2022-09-07T12:46:00.746Z,3.00
2022-09-07T12:49:09.532Z,3.58
2022-09-07T12:52:48.992Z,3.38
2022-09-07T12:56:22.902Z,2.90
2022-09-07T13:00:01.635Z,2.90
2022-09-07T13:03:52.589Z,3.33
2022-09-07T13:07:20.147Z,3.35
2022-09-07T13:10:38.155Z,3.88
2022-09-07T13:14:08.812Z,3.35
2022-09-07T13:17:27.289Z,3.20
2022-09-07T13:20:34.992Z,3.38
2022-09-07T13:23:40.304Z,2.67
2022-09-07T13:26:54.235Z,3.20
2022-09-07T13:30:02.445Z,2.95
2022-09-07T13:33:31.566Z,3.10
2022-09-07T13:37:11.011Z,3.83
2022-09-07T13:40:23.214Z,3.08
2022-09-07T13:43:35.610Z,3.05
2022-09-07T13:46:53.828Z,3.63
2022-09-07T13:50:07.697Z,3.55
2022-09-07T13:53:48.375Z,3.28
2022-09-07T13:57:43.593Z,3.35
2022-09-07T14:01:14.486Z,3.10
2022-09-07T14:04:37.216Z,3.75
2022-09-07T14:07:49.328Z,2.95
2022-09-07T14:10:54.663Z,3.88
2022-09-07T14:14:17.058Z,3.72
2022-09-07T14:17:24.303Z,3.55
2022-09-07T14:20:29.685Z,3.40
2022-09-07T14:23:35.703Z,4.90
2022-09-07T14:26:52.937Z,4.00
2022-09-07T14:29:56.090Z,3.50
2022-09-07T14:33:01.851Z,3.47
2022-09-07T14:36:29.466Z,3.70
2022-09-07T14:39:31.172Z,3.28
2022-09-07T14:42:34.412Z,3.30
2022-09-07T14:45:37.977Z,3.50
2022-09-07T14:48:41.542Z,3.90
2022-09-07T14:51:48.377Z,3.85
2022-09-07T14:54:52.598Z,3.90
2022-09-07T14:58:09.195Z,4.18
2022-09-07T15:04:41.634Z,4.22
2022-09-07T15:07:48.574Z,4.20
2022-09-07T15:14:24.947Z,3.70
2022-09-07T15:17:48.174Z,3.95
2022-09-07T15:20:52.856Z,4.03
2022-09-07T15:23:58.507Z,4.28
2022-09-07T15:27:02.857Z,3.97
2022-09-07T15:30:06.568Z,4.00
2022-09-07T15:33:11.440Z,3.45
2022-09-07T15:36:14.836Z,4.18
2022-09-07T15:39:20.248Z,4.07
2022-09-07T15:45:47.764Z,4.35
2022-09-07T15:48:51.778Z,3.90
2022-09-07T15:52:09.951Z,3.58
2022-09-07T15:55:17.099Z,3.78
2022-09-07T15:58:27.520Z,3.72
2022-09-07T16:04:56.116Z,4.00
2022-09-07T16:11:41.670Z,4.03
2022-09-07T16:14:44.693Z,4.18
2022-09-07T16:17:53.839Z,3.90
2022-09-07T16:20:56.772Z,3.78
2022-09-07T16:24:00.868Z,4.28
2022-09-07T16:27:06.782Z,4.18
2022-09-07T16:30:10.104Z,4.88
2022-09-07T16:33:19.399Z,4.50
2022-09-07T16:36:23.502Z,3.80
2022-09-07T16:39:26.814Z,4.18
2022-09-07T16:42:37.043Z,4.25
2022-09-07T16:49:13.390Z,4.65
2022-09-07T16:52:16.175Z,3.90
2022-09-07T16:55:18.948Z,4.30
2022-09-07T16:58:38.683Z,4.03
2022-09-07T17:01:41.435Z,4.38
2022-09-07T17:04:44.269Z,4.03
2022-09-07T17:07:47.912Z,4.57
2022-09-07T17:10:50.685Z,4.68
2022-09-07T17:13:57.093Z,4.07
2022-09-07T17:17:00.059Z,4.07
2022-09-07T17:20:03.684Z,3.88
2022-09-07T17:23:06.588Z,3.60
2022-09-07T17:26:09.789Z,3.83
2022-09-07T17:29:14.408Z,4.07
2022-09-07T17:32:25.144Z,3.72
2022-09-07T17:35:30.067Z,3.78
2022-09-07T17:41:58.243Z,3.63
2022-09-07T17:45:02.620Z,3.55
2022-09-07T17:48:05.637Z,3.90
2022-09-07T17:51:09.649Z,4.18
2022-09-07T17:54:24.900Z,3.60
2022-09-07T17:57:28.136Z,3.80
2022-09-07T18:00:32.019Z,3.70
2022-09-07T18:03:36.138Z,3.97
2022-09-07T18:06:39.304Z,3.75
2022-09-07T18:09:43.371Z,3.97
2022-09-07T18:12:46.480Z,3.47
2022-09-07T18:15:53.421Z,4.00
2022-09-07T18:18:57.094Z,3.70
2022-09-07T18:22:01.424Z,3.53
2022-09-07T18:25:10.060Z,3.67
2022-09-07T18:31:37.531Z,3.65
2022-09-07T18:34:41.410Z,3.63
2022-09-07T18:37:44.174Z,3.80
2022-09-07T18:40:46.817Z,4.38
2022-09-07T18:43:49.603Z,3.70
2022-09-07T18:46:53.548Z,3.75
2022-09-07T18:49:56.945Z,3.40
2022-09-07T18:53:10.531Z,3.78
2022-09-07T18:56:19.499Z,3.35
2022-09-07T18:59:22.175Z,4.20
2022-09-07T19:02:26.340Z,3.70
2022-09-07T19:08:51.532Z,3.22
2022-09-07T19:11:54.178Z,3.95
2022-09-07T19:14:56.923Z,4.22
2022-09-07T19:18:00.767Z,3.58
2022-09-07T19:21:03.710Z,3.97
2022-09-07T19:24:07.115Z,3.53
2022-09-07T19:27:09.842Z,3.65
2022-09-07T19:30:15.169Z,3.65
2022-09-07T19:33:19.243Z,4.13
2022-09-07T19:36:21.801Z,3.97
2022-09-07T19:39:24.685Z,3.80
2022-09-07T19:42:27.333Z,4.25
2022-09-07T19:45:29.929Z,3.40
2022-09-07T19:48:34.202Z,4.07
2022-09-07T19:51:37.227Z,3.70
2022-09-07T19:54:40.386Z,3.63
2022-09-07T19:57:46.087Z,4.10
2022-09-07T20:00:48.975Z,3.47
2022-09-07T20:03:57.867Z,3.92
2022-09-07T20:07:00.543Z,3.80
2022-09-07T20:10:03.323Z,4.15
2022-09-07T20:13:06.170Z,4.38
2022-09-07T20:16:09.694Z,4.15
2022-09-07T20:19:14.931Z,3.17
2022-09-07T20:22:18.017Z,3.92
2022-09-07T20:25:20.833Z,3.95
2022-09-07T20:28:23.481Z,3.97
2022-09-07T20:31:26.064Z,4.07
2022-09-07T20:34:30.086Z,3.72
2022-09-07T20:37:32.870Z,4.07
2022-09-07T20:40:35.641Z,4.07
2022-09-07T20:43:39.085Z,4.22
2022-09-07T20:46:41.914Z,4.35
2022-09-07T20:49:46.084Z,3.88
2022-09-07T20:52:48.575Z,3.70
2022-09-07T20:55:58.588Z,4.10
2022-09-07T20:59:01.971Z,3.92
2022-09-07T21:02:04.655Z,4.07
2022-09-07T21:05:10.167Z,3.95
2022-09-07T21:08:12.984Z,4.13
2022-09-07T21:11:16.477Z,4.20
2022-09-07T21:14:19.702Z,3.97
2022-09-07T21:17:22.221Z,3.92
2022-09-07T21:20:26.183Z,4.32
2022-09-07T21:23:29.337Z,4.57
2022-09-07T21:26:32.955Z,5.25
2022-09-07T21:29:35.741Z,4.90
2022-09-07T21:32:40.321Z,4.50
2022-09-07T21:35:44.185Z,5.03
2022-09-07T21:38:46.707Z,4.05
2022-09-07T21:41:49.194Z,4.63
2022-09-07T21:44:51.654Z,5.00
2022-09-07T21:47:54.491Z,4.85
2022-09-07T21:50:58.665Z,4.93
2022-09-07T21:54:01.771Z,4.55
2022-09-07T21:57:04.362Z,5.25
2022-09-07T22:00:08.301Z,4.82
2022-09-07T22:03:11.296Z,5.13
2022-09-07T22:06:16.104Z,4.90
2022-09-07T22:09:19.071Z,4.03
2022-09-07T22:12:21.730Z,4.60
2022-09-07T22:15:24.169Z,4.82
2022-09-07T22:18:26.761Z,4.85
2022-09-07T22:21:31.131Z,5.78
2022-09-07T22:24:33.647Z,4.63
2022-09-07T22:27:36.238Z,4.20
2022-09-07T22:30:39.331Z,4.75
2022-09-07T22:33:42.249Z,4.60
2022-09-07T22:36:46.679Z,5.13
2022-09-07T22:39:49.216Z,4.70
2022-09-07T22:42:51.800Z,5.25
2022-09-07T22:45:54.258Z,5.38
2022-09-07T22:48:57.559Z,4.93
2022-09-07T22:52:01.380Z,5.35
2022-09-07T22:55:04.254Z,5.03
2022-09-07T22:58:06.834Z,5.68
2022-09-07T23:01:09.312Z,5.35
2022-09-07T23:04:12.859Z,5.25
2022-09-07T23:07:16.863Z,4.57
2022-09-07T23:10:19.343Z,4.85
2022-09-07T23:13:22.100Z,4.93
2022-09-07T23:16:25.065Z,4.88
2022-09-07T23:19:27.814Z,5.15
2022-09-07T23:22:31.866Z,5.10
2022-09-07T23:25:36.070Z,5.07
2022-09-07T23:28:39.581Z,5.00
2022-09-07T23:31:42.577Z,5.00
2022-09-07T23:34:45.209Z,5.45
2022-09-07T23:37:49.120Z,5.07
2022-09-07T23:40:51.812Z,5.32
2022-09-07T23:43:54.468Z,5.07
2022-09-07T23:46:57.029Z,5.32
2022-09-07T23:49:59.563Z,4.82
2022-09-07T23:53:03.484Z,5.55
2022-09-07T23:56:06.183Z,4.90
2022-09-07T23:59:09.434Z,5.57
